createdAt,value
2023-05-02T00:00:51.889Z,0.82
2023-05-02T00:03:18.600Z,1.00
2023-05-02T00:05:45.436Z,1.10
2023-05-02T00:08:12.036Z,0.60
2023-05-02T00:10:38.865Z,1.20
2023-05-02T00:13:05.684Z,0.95
2023-05-02T00:15:32.373Z,0.93
2023-05-02T00:17:58.970Z,0.77
2023-05-02T00:20:25.764Z,1.05
2023-05-02T00:22:52.372Z,1.17
2023-05-02T00:25:18.991Z,1.10
2023-05-02T00:27:45.559Z,1.00
2023-05-02T00:30:12.787Z,1.05
2023-05-02T00:32:39.375Z,2.00
2023-05-02T00:35:06.946Z,1.58
2023-05-02T00:37:33.746Z,1.10
2023-05-02T00:40:00.731Z,1.40
2023-05-02T00:42:27.810Z,1.10
2023-05-02T00:44:54.400Z,1.63
2023-05-02T00:47:21.281Z,1.20
2023-05-02T00:49:47.888Z,1.05
2023-05-02T00:52:14.458Z,1.00
2023-05-02T00:54:41.067Z,0.90
2023-05-02T00:57:07.785Z,1.17
2023-05-02T00:59:37.619Z,0.95
2023-05-02T01:02:10.210Z,0.85
2023-05-02T01:04:43.087Z,1.02
2023-05-02T01:07:12.742Z,0.93
2023-05-02T01:09:45.205Z,0.88
2023-05-02T01:12:28.418Z,1.25
2023-05-02T01:14:58.402Z,1.50
2023-05-02T01:17:30.493Z,1.33
2023-05-02T01:20:23.444Z,0.80
2023-05-02T01:22:51.677Z,1.33
2023-05-02T01:25:30.558Z,1.17
2023-05-02T01:28:21.128Z,0.90
2023-05-02T01:30:50.102Z,1.13
2023-05-02T01:33:18.721Z,1.05
2023-05-02T01:35:47.200Z,0.98
2023-05-02T01:38:16.799Z,1.13
2023-05-02T01:40:50.126Z,1.25
2023-05-02T01:43:18.801Z,1.27
2023-05-02T01:45:50.049Z,1.33
2023-05-02T01:48:19.797Z,1.33
2023-05-02T01:50:48.644Z,1.38
2023-05-02T01:53:15.401Z,1.20
2023-05-02T01:55:44.835Z,1.25
2023-05-02T01:58:15.073Z,1.13
2023-05-02T02:00:42.745Z,1.00
2023-05-02T02:03:10.557Z,1.20
2023-05-02T02:05:39.982Z,1.35
2023-05-02T02:08:06.841Z,0.88
2023-05-02T02:10:40.702Z,1.08
2023-05-02T02:13:19.682Z,0.82
2023-05-02T02:15:51.335Z,0.75
2023-05-02T02:18:23.587Z,0.93
2023-05-02T02:20:51.678Z,1.30
2023-05-02T02:23:21.206Z,1.20
2023-05-02T02:25:50.604Z,1.00
2023-05-02T02:28:17.353Z,1.40
2023-05-02T02:30:44.092Z,0.80
2023-05-02T02:33:10.782Z,1.30
2023-05-02T02:35:48.528Z,1.38
2023-05-02T02:38:26.555Z,1.20
2023-05-02T02:43:43.061Z,1.42
2023-05-02T02:46:28.689Z,1.08
2023-05-02T02:49:23.418Z,1.10
2023-05-02T02:51:58.436Z,1.05
2023-05-02T02:54:33.932Z,0.90
2023-05-02T02:57:15.434Z,1.27
2023-05-02T02:59:49.788Z,0.90
2023-05-02T03:02:18.941Z,0.80
2023-05-02T03:04:47.091Z,0.95
2023-05-02T03:07:14.287Z,0.90
2023-05-02T03:09:42.261Z,1.17
2023-05-02T03:12:11.418Z,1.02
2023-05-02T03:14:39.938Z,0.80
2023-05-02T03:17:07.214Z,1.00
2023-05-02T03:19:35.042Z,0.93
2023-05-02T03:22:02.173Z,1.33
2023-05-02T03:24:29.800Z,0.93
2023-05-02T03:26:57.771Z,0.98
2023-05-02T03:29:27.426Z,1.27
2023-05-02T03:31:54.058Z,1.35
2023-05-02T03:36:50.497Z,1.00
2023-05-02T03:39:17.263Z,0.80
2023-05-02T03:41:45.248Z,1.05
2023-05-02T03:44:15.012Z,0.90
2023-05-02T03:46:41.945Z,1.10
2023-05-02T03:49:11.450Z,0.90
2023-05-02T03:51:41.210Z,1.05
2023-05-02T03:54:08.612Z,1.00
2023-05-02T03:56:35.424Z,1.00
2023-05-02T03:59:15.346Z,1.27
2023-05-02T04:01:42.892Z,0.70
2023-05-02T04:04:11.669Z,1.25
2023-05-02T04:06:45.344Z,0.80
2023-05-02T04:09:12.143Z,1.10
2023-05-02T04:11:51.875Z,0.93
2023-05-02T04:14:18.923Z,1.10
2023-05-02T04:16:50.026Z,1.13
2023-05-02T04:19:21.206Z,1.00
2023-05-02T04:21:48.889Z,1.50
2023-05-02T04:24:16.496Z,1.05
2023-05-02T04:26:43.754Z,0.83
2023-05-02T04:29:12.865Z,0.88
2023-05-02T04:31:39.762Z,1.08
2023-05-02T04:34:07.297Z,1.50
2023-05-02T04:36:40.081Z,1.00
2023-05-02T04:39:09.286Z,0.98
2023-05-02T04:41:39.135Z,1.00
2023-05-02T04:44:07.132Z,0.80
2023-05-02T04:46:35.094Z,0.90
2023-05-02T04:49:01.705Z,0.85
2023-05-02T04:53:56.473Z,1.10
2023-05-02T04:56:23.254Z,1.10
2023-05-02T04:58:50.085Z,1.00
2023-05-02T05:01:16.727Z,1.48
2023-05-02T05:03:43.784Z,1.00
2023-05-02T05:06:10.458Z,0.98
2023-05-02T05:08:37.506Z,1.10
2023-05-02T05:11:05.011Z,0.93
2023-05-02T05:13:32.246Z,1.02
2023-05-02T05:16:01.737Z,1.10
2023-05-02T05:18:31.370Z,1.38
2023-05-02T05:20:58.140Z,1.38
2023-05-02T05:23:24.789Z,1.15
2023-05-02T05:25:51.500Z,1.55
2023-05-02T05:28:18.944Z,1.37
2023-05-02T05:30:46.085Z,1.80
2023-05-02T05:33:16.229Z,4.80
2023-05-02T05:35:43.517Z,2.22
2023-05-02T05:38:10.202Z,1.85
2023-05-02T05:40:38.729Z,1.85
2023-05-02T05:43:07.363Z,1.30
2023-05-02T05:45:37.300Z,1.55
2023-05-02T05:48:07.260Z,2.50
2023-05-02T05:50:39.926Z,2.58
2023-05-02T05:53:06.619Z,1.60
2023-05-02T05:55:35.965Z,1.30
2023-05-02T05:58:05.255Z,1.17
2023-05-02T06:00:36.139Z,0.80
2023-05-02T06:03:03.310Z,0.90
2023-05-02T06:05:32.900Z,1.10
2023-05-02T06:08:00.210Z,1.17
2023-05-02T06:10:27.116Z,1.25
2023-05-02T06:12:54.092Z,1.10
2023-05-02T06:15:25.232Z,0.98
2023-05-02T06:17:52.836Z,1.02
2023-05-02T06:20:19.472Z,1.50
2023-05-02T06:22:46.133Z,1.40
2023-05-02T06:25:13.110Z,1.17
2023-05-02T06:27:39.960Z,1.10
2023-05-02T06:30:07.255Z,1.58
2023-05-02T06:32:33.844Z,1.33
2023-05-02T06:35:00.596Z,1.38
2023-05-02T06:37:27.142Z,1.08
2023-05-02T06:39:53.762Z,1.02
2023-05-02T06:42:20.550Z,1.70
2023-05-02T06:44:47.178Z,1.27
2023-05-02T06:47:14.123Z,1.40
2023-05-02T06:49:40.755Z,1.67
2023-05-02T06:52:07.446Z,1.33
2023-05-02T06:54:34.038Z,1.40
2023-05-02T06:57:00.802Z,1.38
2023-05-02T06:59:27.716Z,1.73
2023-05-02T07:01:54.367Z,1.50
2023-05-02T07:04:21.171Z,1.63
2023-05-02T07:06:48.000Z,1.88
2023-05-02T07:09:14.846Z,2.08
2023-05-02T07:11:41.506Z,1.77
2023-05-02T07:14:20.065Z,1.67
2023-05-02T07:16:46.725Z,2.05
2023-05-02T07:19:13.515Z,2.13
2023-05-02T07:21:40.123Z,2.40
2023-05-02T07:24:06.754Z,2.08
2023-05-02T07:26:33.424Z,1.70
2023-05-02T07:29:00.009Z,2.00
2023-05-02T07:31:26.795Z,2.17
2023-05-02T07:33:53.378Z,2.00
2023-05-02T07:36:20.112Z,3.40
2023-05-02T07:38:46.808Z,1.88
2023-05-02T07:41:14.130Z,2.08
2023-05-02T07:43:40.866Z,2.47
2023-05-02T07:46:07.484Z,2.17
2023-05-02T07:48:34.193Z,2.40
2023-05-02T07:51:09.998Z,2.47
2023-05-02T07:53:36.773Z,3.10
2023-05-02T07:56:04.549Z,2.85
2023-05-02T07:58:31.103Z,3.10
2023-05-02T08:00:57.937Z,2.60
2023-05-02T08:03:24.757Z,2.63
2023-05-02T08:05:51.483Z,2.13
2023-05-02T08:08:18.053Z,2.35
2023-05-02T08:10:44.738Z,2.55
2023-05-02T08:13:11.996Z,2.45
2023-05-02T08:15:38.662Z,2.85
2023-05-02T08:18:05.306Z,2.67
2023-05-02T08:20:31.992Z,2.80
2023-05-02T08:23:00.066Z,3.03
2023-05-02T08:25:27.105Z,2.45
2023-05-02T08:27:53.689Z,3.00
2023-05-02T08:30:20.359Z,3.13
2023-05-02T08:32:47.058Z,3.00
2023-05-02T08:35:13.803Z,3.30
2023-05-02T08:37:40.369Z,3.05
2023-05-02T08:40:11.613Z,3.15
2023-05-02T08:42:42.189Z,4.10
2023-05-02T08:45:09.314Z,3.45
2023-05-02T08:47:37.024Z,3.20
2023-05-02T08:50:05.871Z,3.50
2023-05-02T08:52:33.065Z,3.05
2023-05-02T08:55:02.179Z,3.60
2023-05-02T08:57:30.354Z,4.10
2023-05-02T08:59:57.255Z,3.92
2023-05-02T09:02:38.672Z,4.65
2023-05-02T09:05:12.304Z,4.18
2023-05-02T09:07:46.950Z,3.63
2023-05-02T09:10:14.766Z,3.75
2023-05-02T09:12:41.901Z,3.40
2023-05-02T09:15:11.577Z,3.50
2023-05-02T09:17:45.899Z,3.88
2023-05-02T09:20:13.957Z,3.97
2023-05-02T09:25:15.359Z,4.10
2023-05-02T09:27:55.245Z,3.30
2023-05-02T09:30:26.363Z,3.75
2023-05-02T09:32:53.690Z,3.35
2023-05-02T09:35:20.676Z,3.78
2023-05-02T09:37:47.748Z,3.50
2023-05-02T09:40:14.652Z,4.03
2023-05-02T09:42:41.265Z,4.10
2023-05-02T09:45:08.575Z,3.58
2023-05-02T09:47:35.950Z,4.17
2023-05-02T09:50:02.688Z,4.70
2023-05-02T09:52:29.342Z,4.65
2023-05-02T09:54:56.071Z,4.55
2023-05-02T09:57:22.809Z,4.43
2023-05-02T09:59:56.550Z,4.43
2023-05-02T10:02:25.010Z,3.97
2023-05-02T10:04:53.958Z,4.18
2023-05-02T10:07:21.295Z,3.72
2023-05-02T10:09:53.024Z,4.10
2023-05-02T10:12:21.605Z,3.97
2023-05-02T10:14:55.106Z,4.03
2023-05-02T10:17:40.183Z,3.97
2023-05-02T10:20:07.905Z,3.95
2023-05-02T10:22:35.831Z,3.70
2023-05-02T10:25:03.896Z,4.43
2023-05-02T10:27:31.878Z,3.75
2023-05-02T10:29:59.864Z,3.47
2023-05-02T10:32:29.539Z,4.00
2023-05-02T10:35:06.498Z,3.50
2023-05-02T10:37:36.646Z,4.15
2023-05-02T10:40:04.295Z,3.53
2023-05-02T10:42:35.296Z,3.40
2023-05-02T10:45:02.216Z,3.58
2023-05-02T10:47:29.197Z,4.83
2023-05-02T10:49:57.189Z,4.03
2023-05-02T10:52:37.436Z,4.47
2023-05-02T10:55:23.976Z,3.58
2023-05-02T10:58:05.612Z,3.15
2023-05-02T11:00:34.189Z,3.70
2023-05-02T11:03:01.945Z,4.28
2023-05-02T11:05:29.101Z,3.40
2023-05-02T11:08:19.258Z,3.55
2023-05-02T11:10:48.016Z,3.88
2023-05-02T11:13:14.776Z,4.28
2023-05-02T11:15:41.515Z,3.33
2023-05-02T11:18:09.140Z,4.75
2023-05-02T11:20:37.064Z,4.10
2023-05-02T11:23:16.064Z,4.15
2023-05-02T11:25:47.276Z,4.25
2023-05-02T11:28:42.785Z,3.97
2023-05-02T11:31:28.067Z,3.38
2023-05-02T11:33:59.202Z,2.40
2023-05-02T11:36:32.818Z,3.03
2023-05-02T11:39:04.410Z,2.97
2023-05-02T11:41:43.305Z,1.27
2023-05-02T11:44:10.453Z,1.40
2023-05-02T11:46:38.451Z,1.77
2023-05-02T11:49:08.364Z,2.38
2023-05-02T11:51:36.112Z,2.08
2023-05-02T11:54:02.876Z,2.17
2023-05-02T11:56:29.541Z,2.28
2023-05-02T11:59:00.511Z,2.35
2023-05-02T12:01:27.606Z,2.33
2023-05-02T12:04:04.636Z,2.75
2023-05-02T12:06:31.384Z,2.58
2023-05-02T12:09:14.206Z,2.50
2023-05-02T12:11:41.116Z,2.65
2023-05-02T12:14:07.800Z,3.28
2023-05-02T12:16:35.009Z,3.22
2023-05-02T12:19:01.940Z,3.40
2023-05-02T12:21:29.484Z,6.28
2023-05-02T12:23:57.270Z,3.70
2023-05-02T12:26:26.716Z,2.95
2023-05-02T12:28:54.486Z,2.28
2023-05-02T12:31:21.868Z,3.90
2023-05-02T12:33:48.449Z,6.22
2023-05-02T12:36:15.136Z,3.30
2023-05-02T12:38:48.575Z,3.00
2023-05-02T12:41:15.349Z,2.85
2023-05-02T12:43:49.616Z,3.22
2023-05-02T12:46:16.337Z,2.83
2023-05-02T12:48:44.234Z,2.20
2023-05-02T12:51:22.530Z,1.63
2023-05-02T12:53:49.124Z,2.17
2023-05-02T12:56:15.711Z,2.47
2023-05-02T12:58:47.304Z,2.83
2023-05-02T13:01:15.325Z,2.80
2023-05-02T13:06:10.211Z,2.47
2023-05-02T13:08:36.991Z,3.27
2023-05-02T13:11:04.092Z,2.95
2023-05-02T13:13:31.318Z,2.85
2023-05-02T13:15:58.229Z,3.35
2023-05-02T13:18:24.966Z,3.92
2023-05-02T13:20:51.786Z,3.88
2023-05-02T13:23:18.425Z,3.45
2023-05-02T13:25:45.121Z,4.10
2023-05-02T13:28:11.764Z,3.72
2023-05-02T13:30:38.488Z,3.60
2023-05-02T13:33:05.157Z,3.67
2023-05-02T13:35:33.335Z,3.28
2023-05-02T13:38:01.330Z,3.28
2023-05-02T13:40:28.405Z,2.97
2023-05-02T13:42:55.071Z,3.67
2023-05-02T13:45:21.774Z,3.10
2023-05-02T13:47:48.492Z,2.85
2023-05-02T13:50:15.307Z,2.53
2023-05-02T13:52:41.868Z,2.80
2023-05-02T13:55:09.225Z,2.33
2023-05-02T13:57:35.906Z,3.25
2023-05-02T14:00:03.002Z,2.72
2023-05-02T14:02:32.007Z,2.42
2023-05-02T14:04:58.729Z,2.42
2023-05-02T14:07:25.372Z,2.90
2023-05-02T14:09:52.028Z,2.90
2023-05-02T14:12:18.638Z,3.78
2023-05-02T14:14:45.395Z,3.45
2023-05-02T14:17:12.112Z,3.15
2023-05-02T14:19:38.781Z,2.83
2023-05-02T14:22:05.353Z,2.97
2023-05-02T14:24:31.902Z,2.58
2023-05-02T14:26:58.555Z,3.00
2023-05-02T14:29:25.119Z,2.83
2023-05-02T14:31:51.718Z,2.80
2023-05-02T14:34:18.433Z,2.50
2023-05-02T14:36:45.050Z,3.00
2023-05-02T14:39:11.770Z,5.05
2023-05-02T14:41:38.352Z,3.85
2023-05-02T14:44:05.169Z,3.67
2023-05-02T14:46:31.786Z,5.97
2023-05-02T14:48:58.354Z,6.00
2023-05-02T14:51:24.989Z,5.15
2023-05-02T14:53:51.624Z,6.35
2023-05-02T14:56:18.182Z,6.75
2023-05-02T14:58:44.743Z,5.68
2023-05-02T15:01:21.924Z,4.25
2023-05-02T15:04:04.203Z,4.20
2023-05-02T15:06:32.726Z,3.55
2023-05-02T15:08:59.534Z,2.93
2023-05-02T15:11:26.110Z,3.72
2023-05-02T15:13:52.805Z,2.83
2023-05-02T15:16:19.675Z,2.70
2023-05-02T15:18:46.368Z,2.53
2023-05-02T15:21:13.033Z,2.42
2023-05-02T15:23:39.611Z,2.83
2023-05-02T15:26:06.259Z,2.42
2023-05-02T15:28:32.827Z,2.95
2023-05-02T15:30:59.480Z,2.92
2023-05-02T15:33:26.354Z,2.80
2023-05-02T15:35:54.892Z,3.33
2023-05-02T15:38:21.778Z,3.20
2023-05-02T15:40:58.668Z,3.50
2023-05-02T15:43:25.991Z,3.75
2023-05-02T15:45:58.059Z,3.33
2023-05-02T15:48:28.771Z,3.13
2023-05-02T15:50:55.727Z,3.22
2023-05-02T15:53:22.586Z,2.80
2023-05-02T15:55:50.773Z,3.15
2023-05-02T16:00:45.287Z,2.95
2023-05-02T16:03:11.954Z,3.38
2023-05-02T16:05:39.493Z,2.97
2023-05-02T16:08:06.355Z,3.28
2023-05-02T16:10:33.014Z,4.20
2023-05-02T16:12:59.731Z,2.85
2023-05-02T16:15:26.297Z,2.72
2023-05-02T16:17:52.933Z,3.80
2023-05-02T16:20:19.809Z,2.35
2023-05-02T16:22:47.312Z,2.58
2023-05-02T16:25:14.881Z,2.70
2023-05-02T16:27:42.256Z,2.60
2023-05-02T16:30:09.377Z,3.03
2023-05-02T16:32:36.113Z,3.30
2023-05-02T16:35:06.486Z,2.60
2023-05-02T16:37:34.441Z,2.97
2023-05-02T16:42:28.652Z,2.95
2023-05-02T16:44:56.516Z,3.20
2023-05-02T16:47:23.612Z,2.95
2023-05-02T16:50:00.127Z,2.75
2023-05-02T16:52:27.157Z,2.38
2023-05-02T16:54:54.464Z,2.60
2023-05-02T16:57:21.730Z,2.97
2023-05-02T16:59:49.899Z,2.60
2023-05-02T17:02:17.290Z,3.08
2023-05-02T17:04:44.004Z,2.92
2023-05-02T17:07:10.746Z,2.97
2023-05-02T17:09:38.429Z,3.28
2023-05-02T17:12:06.120Z,3.17
2023-05-02T17:14:33.327Z,3.65
2023-05-02T17:17:01.082Z,3.20
2023-05-02T17:19:27.996Z,3.15
2023-05-02T17:21:55.022Z,2.40
2023-05-02T17:24:21.756Z,2.60
2023-05-02T17:26:49.112Z,3.42
2023-05-02T17:29:15.742Z,3.17
2023-05-02T17:31:42.447Z,2.67
2023-05-02T17:34:09.144Z,2.22
2023-05-02T17:36:35.758Z,2.92
2023-05-02T17:39:03.284Z,2.65
2023-05-02T17:41:30.617Z,2.67
2023-05-02T17:43:57.205Z,2.47
2023-05-02T17:46:23.826Z,3.15
2023-05-02T17:48:50.489Z,2.13
2023-05-02T17:51:17.059Z,2.40
2023-05-02T17:53:43.732Z,2.75
2023-05-02T17:56:10.356Z,2.30
2023-05-02T17:58:36.904Z,2.75
2023-05-02T18:01:08.073Z,2.92
2023-05-02T18:03:35.820Z,2.97
2023-05-02T18:06:02.643Z,3.00
2023-05-02T18:08:29.314Z,2.88
2023-05-02T18:10:55.873Z,3.45
2023-05-02T18:13:22.483Z,4.93
2023-05-02T18:15:59.449Z,6.88
2023-05-02T18:18:26.105Z,5.25
2023-05-02T18:20:52.737Z,4.15
2023-05-02T18:23:19.303Z,4.22
2023-05-02T18:25:45.969Z,3.47
2023-05-02T18:28:12.522Z,2.47
2023-05-02T18:30:39.642Z,2.50
2023-05-02T18:33:07.248Z,2.83
2023-05-02T18:35:33.992Z,3.92
2023-05-02T18:38:00.664Z,3.47
2023-05-02T18:40:27.272Z,3.10
2023-05-02T18:42:53.883Z,2.97
2023-05-02T18:45:20.538Z,2.83
2023-05-02T18:47:47.109Z,2.67
2023-05-02T18:50:13.762Z,3.30
2023-05-02T18:52:40.329Z,3.20
2023-05-02T18:55:07.302Z,2.97
2023-05-02T18:57:33.910Z,3.58
2023-05-02T19:00:00.855Z,3.15
2023-05-02T19:02:27.646Z,3.22
2023-05-02T19:04:54.872Z,3.30
2023-05-02T19:07:21.526Z,2.92
2023-05-02T19:09:48.200Z,2.60
2023-05-02T19:12:14.824Z,2.90
2023-05-02T19:14:41.469Z,3.17
2023-05-02T19:17:08.145Z,2.90
2023-05-02T19:19:34.731Z,3.55
2023-05-02T19:22:01.417Z,3.08
2023-05-02T19:24:28.032Z,4.15
2023-05-02T19:26:54.625Z,4.07
2023-05-02T19:29:21.195Z,4.43
2023-05-02T19:31:47.843Z,4.88
2023-05-02T19:37:32.570Z,4.07
2023-05-02T19:39:59.240Z,3.72
2023-05-02T19:42:25.832Z,2.85
2023-05-02T19:44:52.401Z,3.28
2023-05-02T19:47:19.077Z,3.65
2023-05-02T19:49:45.790Z,3.30
2023-05-02T19:52:12.341Z,3.58
2023-05-02T19:54:39.013Z,3.55
2023-05-02T19:57:05.606Z,3.03
2023-05-02T19:59:32.293Z,2.88
2023-05-02T20:01:58.922Z,3.50
2023-05-02T20:04:25.614Z,3.70
2023-05-02T20:06:52.545Z,3.58
2023-05-02T20:09:19.351Z,3.90
2023-05-02T20:11:45.924Z,3.67
2023-05-02T20:14:12.484Z,3.33
2023-05-02T20:16:39.130Z,3.20
2023-05-02T20:19:05.768Z,4.05
2023-05-02T20:21:32.390Z,3.67
2023-05-02T20:23:59.214Z,3.60
2023-05-02T20:26:25.884Z,3.33
2023-05-02T20:28:52.654Z,3.15
2023-05-02T20:31:19.701Z,3.55
2023-05-02T20:33:46.432Z,3.97
2023-05-02T20:36:13.570Z,5.93
2023-05-02T20:38:40.410Z,4.75
2023-05-02T20:41:07.075Z,4.25
2023-05-02T20:43:33.883Z,3.38
2023-05-02T20:46:09.702Z,3.55
2023-05-02T20:48:36.383Z,3.60
2023-05-02T20:51:03.299Z,4.35
2023-05-02T20:53:29.891Z,4.13
2023-05-02T20:55:56.715Z,3.17
2023-05-02T20:58:23.321Z,3.10
2023-05-02T21:00:50.055Z,3.30
2023-05-02T21:03:16.942Z,4.18
2023-05-02T21:05:43.642Z,3.90
2023-05-02T21:08:10.202Z,3.38
2023-05-02T21:10:36.789Z,3.10
2023-05-02T21:13:03.398Z,2.72
2023-05-02T21:15:34.278Z,2.40
2023-05-02T21:18:02.852Z,2.38
2023-05-02T21:20:30.270Z,2.95
2023-05-02T21:23:00.121Z,3.33
2023-05-02T21:25:27.345Z,3.53
2023-05-02T21:27:54.229Z,4.38
2023-05-02T21:30:21.686Z,4.88
2023-05-02T21:32:49.106Z,3.95
2023-05-02T21:35:16.298Z,4.20
2023-05-02T21:37:43.591Z,4.23
2023-05-02T21:40:11.376Z,3.35
2023-05-02T21:42:38.494Z,4.10
2023-05-02T21:45:06.360Z,3.20
2023-05-02T21:47:32.952Z,3.10
2023-05-02T21:50:00.188Z,3.78
2023-05-02T21:52:27.025Z,3.00
2023-05-02T21:54:53.688Z,2.58
2023-05-02T21:57:20.334Z,2.95
2023-05-02T21:59:46.986Z,2.75
2023-05-02T22:02:13.605Z,3.03
2023-05-02T22:04:40.223Z,2.70
2023-05-02T22:07:06.940Z,3.05
2023-05-02T22:09:33.755Z,3.17
2023-05-02T22:12:00.490Z,2.85
2023-05-02T22:14:33.633Z,2.78
2023-05-02T22:17:08.073Z,2.72
2023-05-02T22:19:34.733Z,2.80
2023-05-02T22:22:01.408Z,2.67
2023-05-02T22:24:28.324Z,2.80
2023-05-02T22:26:54.970Z,2.90
2023-05-02T22:29:22.033Z,2.72
2023-05-02T22:31:48.760Z,2.75
2023-05-02T22:34:15.802Z,2.50
2023-05-02T22:36:42.442Z,3.58
2023-05-02T22:39:09.037Z,3.67
2023-05-02T22:41:35.678Z,3.42
2023-05-02T22:44:02.448Z,3.00
2023-05-02T22:46:29.117Z,2.78
2023-05-02T22:48:55.981Z,2.92
2023-05-02T22:51:23.981Z,2.97
2023-05-02T22:53:50.592Z,2.95
2023-05-02T22:56:17.503Z,3.50
2023-05-02T22:58:44.094Z,3.33
2023-05-02T23:01:10.724Z,2.47
2023-05-02T23:03:37.556Z,3.22
2023-05-02T23:06:04.458Z,3.38
2023-05-02T23:08:31.115Z,2.97
2023-05-02T23:10:57.860Z,3.15
2023-05-02T23:13:25.986Z,3.05
2023-05-02T23:18:20.329Z,3.05
2023-05-02T23:20:46.920Z,3.20
2023-05-02T23:23:13.795Z,2.53
2023-05-02T23:25:40.431Z,2.88
2023-05-02T23:28:07.099Z,2.60
2023-05-02T23:30:33.913Z,2.08
2023-05-02T23:33:00.847Z,3.17
2023-05-02T23:35:27.607Z,2.58
2023-05-02T23:37:54.315Z,2.92
2023-05-02T23:40:21.054Z,3.00
2023-05-02T23:42:47.762Z,2.72
2023-05-02T23:45:14.387Z,2.55
2023-05-02T23:47:41.114Z,2.78
2023-05-02T23:50:08.092Z,2.47
2023-05-02T23:52:34.661Z,2.78
2023-05-02T23:55:01.262Z,2.90
2023-05-02T23:57:30.198Z,2.78
2023-05-02T23:59:56.808Z,2.53
